Latest Weather Observations for Melbourne (Olympic Park)

IDV60901

Issued at 10:21 am EST Monday 3 August 2015 (issued every 10 minutes, with the page automatically refreshed every 10 minutes)

About weather observations | Map of Melbourne area stations | Latest observations for Melbourne area | Other Formats
Station Details ID: 086338 Name: MELBOURNE (OLYMPIC PARK) Lat: -37.83 Lon: 144.98 Height: 7.53 m
Data from the previous 72 hours. | See also: Recent months at Melbourne (Olympic Park)
Date/Time
EST
Tmp

°C
App
Tmp
°C
Dew
Point
°C
Rel
Hum
%
Delta-T

°C
Wind Press
QNH
hPa
Press
MSL
hPa
Rain
since
9 am
mm
Dir
 
Spd
km/h
Gust
km/h
Spd
kts
Gust
kts
03/10:00am 9.0 5.5 3.4 68 2.4 W 11 28 6 15 1018.3 1018.3 0.0
03/09:30am 8.3 3.8 4.1 75 1.8 WNW 17 26 9 14 1017.9 1017.9 0.0
03/09:00am 7.7 4.2 3.7 76 1.7 WNW 11 22 6 12 1017.4 1017.4 6.4
03/08:30am 7.7 3.5 3.6 75 1.8 W 15 32 8 17 1017.0 1017.0 6.4
03/08:00am 8.2 4.4 4.0 75 1.8 W 13 22 7 12 1016.2 1016.2 6.4
03/07:30am 8.1 4.7 3.9 75 1.8 W 11 24 6 13 1015.5 1015.5 6.4
03/07:00am 8.0 4.3 4.2 77 1.7 WNW 13 32 7 17 1014.9 1014.9 6.4
03/06:30am 7.7 3.3 4.8 82 1.3 W 17 32 9 17 1014.6 1014.6 6.4
03/06:00am 8.8 3.8 4.4 74 1.9 WNW 20 52 11 28 1013.9 1013.9 6.2
03/05:30am 9.7 6.8 4.5 70 2.3 WNW 9 17 5 9 1013.1 1013.1 6.2
03/05:00am 9.6 6.4 5.0 73 2.1 WNW 11 20 6 11 1013.0 1013.0 6.2
03/04:30am 10.0 6.7 4.4 68 2.5 WNW 11 19 6 10 1012.6 1012.6 6.0
03/04:00am 9.8 5.4 4.8 71 2.2 W 17 35 9 19 1012.5 1012.5 6.0
03/03:30am 10.6 6.5 4.1 64 2.9 WNW 15 32 8 17 1012.2 1012.2 6.0
03/03:00am 10.7 5.8 4.0 63 3.0 NW 19 30 10 16 1012.4 1012.4 6.0
03/02:30am 10.6 6.0 3.9 63 3.0 NW 17 32 9 17 1012.3 1012.3 6.0
03/02:00am 10.6 6.4 3.9 63 3.0 NW 15 26 8 14 1012.3 1012.3 6.0
03/01:30am 10.6 5.5 3.9 63 3.0 NNW 20 33 11 18 1012.2 1012.2 6.0
03/01:00am 10.5 6.3 4.0 64 2.9 NW 15 32 8 17 1012.5 1012.5 6.0
03/12:30am 10.4 5.8 3.9 64 2.9 NW 17 37 9 20 1012.7 1012.7 6.0
03/12:00am 10.6 6.0 3.6 62 3.1 NW 17 24 9 13 1012.7 1012.7 6.0
 
Date/Time
EST
Tmp

°C
App
Tmp
°C
Dew
Point
°C
Rel
Hum
%
Delta-T

°C
Wind Press
QNH
hPa
Press
MSL
hPa
Rain
since
9 am
mm
Dir
 
Spd
km/h
Gust
km/h
Spd
kts
Gust
kts
02/11:30pm 10.6 6.0 3.9 63 3.0 NW 17 30 9 16 1012.7 1012.7 6.0
02/11:00pm 10.3 6.9 4.0 65 2.8 NW 11 20 6 11 1012.8 1012.8 6.0
02/10:30pm 10.2 5.8 4.6 68 2.5 NW 17 30 9 16 1012.9 1012.9 6.0
02/10:00pm 10.3 6.8 5.3 71 2.3 WNW 13 20 7 11 1013.0 1013.0 6.0
02/09:30pm 10.3 7.0 6.6 78 1.7 NW 13 24 7 13 1012.6 1012.6 6.0
02/09:00pm 9.9 7.6 7.5 85 1.1 NW 9 19 5 10 1012.6 1012.6 5.8
02/08:30pm 9.6 8.5 7.0 84 1.2 WNW 2 6 1 3 1012.5 1012.5 5.8
02/08:00pm 10.0 7.6 6.9 81 1.5 WNW 9 20 5 11 1012.3 1012.3 5.8
02/07:30pm 9.6 6.5 7.4 86 1.0 WNW 13 20 7 11 1012.3 1012.3 5.8
02/07:00pm 9.3 6.0 8.1 92 0.6 WNW 15 32 8 17 1012.3 1012.3 4.8
02/06:30pm 9.6 6.7 8.2 91 0.7 WSW 13 32 7 17 1012.0 1012.0 2.4
02/06:00pm 10.1 7.3 8.5 90 0.8 W 13 22 7 12 1011.3 1011.3 1.8
02/05:30pm 10.6 7.7 8.0 84 1.3 SW 13 20 7 11 1011.0 1011.0 0.6
02/05:00pm 13.9 10.7 2.8 47 4.9 NW 9 20 5 11 1010.0 1010.0 0.0
02/04:30pm 14.0 9.6 2.6 46 5.0 NNW 15 28 8 15 1009.8 1009.8 0.0
02/04:00pm 14.1 9.3 2.4 45 5.2 NW 17 32 9 17 1009.7 1009.7 0.0
02/03:30pm 14.3 8.9 2.5 45 5.2 NW 20 35 11 19 1009.8 1009.8 0.0
02/03:00pm 14.4 9.7 2.9 46 5.1 WNW 17 33 9 18 1010.1 1010.1 0.0
02/02:30pm 14.4 9.6 2.6 45 5.2 NW 17 30 9 16 1010.0 1010.0 0.0
02/02:00pm 13.7 7.5 2.0 45 5.1 NW 24 37 13 20 1010.1 1010.1 0.0
02/01:30pm 13.5 8.3 2.4 47 4.9 NW 19 39 10 21 1010.4 1010.4 0.0
02/01:00pm 13.5 8.0 2.1 46 5.0 NW 20 35 11 19 1010.8 1010.8 0.0
02/12:30pm 12.6 7.3 1.9 48 4.6 NW 19 35 10 19 1011.4 1011.4 0.0
02/12:00pm 13.1 9.0 2.4 48 4.7 NW 13 24 7 13 1011.8 1011.8 0.0
02/11:30am 12.6 7.1 1.9 48 4.6 NW 20 37 11 20 1012.4 1012.4 0.0
02/11:00am 12.2 6.8 1.5 48 4.5 NW 19 37 10 20 1012.9 1012.9 0.0
02/10:30am 11.4 6.2 2.2 53 3.9 NNW 19 28 10 15 1013.3 1013.3 0.0
02/10:00am 10.8 6.6 1.9 54 3.8 NNW 13 19 7 10 1013.2 1013.2 0.0
02/09:30am 10.0 5.5 1.9 57 3.4 NNW 15 22 8 12 1013.1 1013.1 0.0
02/09:00am 9.0 4.5 1.9 61 3.0 N 15 22 8 12 1013.2 1013.2 0.0
02/08:30am 8.4 4.2 1.6 62 2.8 NNW 13 22 7 12 1013.3 1013.3 0.0
02/08:00am 8.3 4.1 1.7 63 2.7 N 13 17 7 9 1013.4 1013.4 0.0
02/07:30am 8.2 4.0 1.6 63 2.7 N 13 20 7 11 1013.5 1013.5 0.0
02/07:00am 8.2 4.4 1.8 64 2.6 N 11 17 6 9 1013.6 1013.6 0.0
02/06:30am 8.1 4.3 1.7 64 2.6 N 11 17 6 9 1013.3 1013.3 0.0
02/06:00am 8.3 4.5 1.7 63 2.7 N 11 15 6 8 1013.3 1013.3 0.0
02/05:30am 8.3 4.9 1.9 64 2.6 NNW 9 17 5 9 1013.4 1013.4 0.0
02/05:00am 8.6 4.8 1.7 62 2.8 NW 11 19 6 10 1013.6 1013.6 0.0
02/04:30am 8.3 4.9 1.9 64 2.6 N 9 13 5 7 1013.3 1013.3 0.0
02/04:00am 8.5 4.8 2.1 64 2.7 NNW 11 15 6 8 1013.7 1013.7 0.0
02/03:30am 8.7 5.4 2.3 64 2.7 N 9 13 5 7 1013.7 1013.7 0.0
02/03:00am 9.1 5.3 1.8 60 3.0 NNW 11 19 6 10 1014.5 1014.5 0.0
02/02:30am 9.3 5.5 1.9 60 3.1 N 11 17 6 9 1014.8 1014.8 0.0
02/02:00am 9.2 5.9 2.3 62 2.9 N 9 13 5 7 1014.7 1014.7 0.0
02/01:30am 8.6 5.7 2.8 67 2.5 N 7 9 4 5 1015.4 1015.4 0.0
02/01:00am 9.0 5.6 1.9 61 2.9 N 9 13 5 7 1015.3 1015.3 0.0
02/12:30am 9.0 5.6 1.9 61 3.0 N 9 11 5 6 1015.7 1015.7 0.0
02/12:00am 9.1 5.7 2.0 61 3.0 NNW 9 11 5 6 1016.3 1016.3 0.0
 
Date/Time
EST
Tmp

°C
App
Tmp
°C
Dew
Point
°C
Rel
Hum
%
Delta-T

°C
Wind Press
QNH
hPa
Press
MSL
hPa
Rain
since
9 am
mm
Dir
 
Spd
km/h
Gust
km/h
Spd
kts
Gust
kts
01/11:30pm 8.8 5.8 2.2 63 2.8 N 7 11 4 6 1015.7 1015.7 0.0
01/11:00pm 9.2 5.4 1.9 60 3.0 N 11 17 6 9 1016.2 1016.2 0.0
01/10:30pm 9.1 6.3 2.0 61 3.0 N 6 11 3 6 1015.8 1015.8 0.0
01/10:00pm 9.3 6.3 2.2 61 3.0 NNW 7 11 4 6 1016.3 1016.3 0.0
01/09:30pm 8.2 6.7 2.9 69 2.2 CALM 0 0 0 0 1016.4 1016.4 0.0
01/09:00pm 8.8 7.2 2.2 63 2.8 CALM 0 6 0 3 1016.3 1016.3 0.0
01/08:30pm 8.6 7.1 2.8 67 2.5 CALM 0 7 0 4 1016.1 1016.1 0.0
01/08:00pm 9.1 7.5 2.2 62 2.9 CALM 0 6 0 3 1015.9 1015.9 0.0
01/07:30pm 10.2 7.2 0.8 52 3.9 W 6 11 3 6 1016.2 1016.2 0.0
01/07:00pm 10.0 7.4 0.9 53 3.7 W 4 11 2 6 1016.0 1016.0 0.0
01/06:30pm 10.2 7.2 0.8 52 3.9 WNW 6 7 3 4 1015.8 1015.8 0.0
01/06:00pm 10.1 7.9 1.0 53 3.7 WSW 2 9 1 5 1015.7 1015.7 0.0
01/05:30pm 10.1 8.0 2.0 57 3.4 WSW 2 9 1 5 1015.3 1015.3 0.0
01/05:00pm 10.5 8.6 2.8 59 3.3 SSW 2 9 1 5 1015.0 1015.0 0.0
01/04:30pm 10.8 8.3 3.8 62 3.1 S 6 9 3 5 1014.6 1014.6 0.0
01/04:00pm 11.1 8.9 3.6 60 3.3 WSW 4 7 2 4 1014.8 1014.8 0.0
01/03:30pm 11.0 8.9 4.0 62 3.1 WSW 4 11 2 6 1014.6 1014.6 0.0
01/03:00pm 10.9 8.6 4.6 65 2.8 SSW 6 7 3 4 1014.6 1014.6 0.0
01/02:30pm 11.0 8.1 4.5 64 2.9 S 9 13 5 7 1014.2 1014.2 0.0
01/02:00pm 11.0 8.6 4.2 63 3.0 S 6 13 3 7 1014.3 1014.3 0.0
01/01:30pm 10.9 8.4 4.8 66 2.8 S 7 13 4 7 1014.3 1014.3 0.0
01/01:00pm 11.1 9.0 5.6 69 2.5 SW 6 13 3 7 1014.4 1014.4 0.0
01/12:30pm 11.1 8.3 5.2 67 2.7 SW 9 15 5 8 1014.5 1014.5 0.0
01/12:00pm 11.3 8.2 5.4 67 2.7 WSW 11 19 6 10 1014.6 1014.6 0.0
01/11:30am 11.2 8.5 5.5 68 2.6 WSW 9 17 5 9 1014.8 1014.8 0.0
01/11:00am 10.8 7.8 5.8 71 2.3 WSW 11 19 6 10 1014.7 1014.7 0.0
01/10:30am 10.1 8.0 6.8 80 1.6 W 7 17 4 9 1014.7 1014.7 0.0
01/10:00am 9.8 7.9 7.7 87 1.0 WSW 7 13 4 7 1014.1 1014.1 0.0
01/09:30am 10.6 8.2 7.1 79 1.7 WSW 9 20 5 11 1013.2 1013.2 0.0
01/09:00am 11.0 7.9 7.3 78 1.8 WSW 13 26 7 14 1012.5 1012.5 0.2
01/08:30am 10.9 8.3 7.6 80 1.6 NW 11 32 6 17 1011.8 1011.8 0.2
01/08:00am 10.6 6.8 7.5 81 1.5 N 17 26 9 14 1010.7 1010.7 0.2
01/07:30am 10.3 6.0 7.2 81 1.5 N 19 30 10 16 1010.2 1010.2 0.2
01/07:00am 10.7 6.7 6.5 75 2.0 N 17 26 9 14 1009.5 1009.5 0.0
01/06:30am 11.2 6.6 5.7 69 2.5 N 19 35 10 19 1009.3 1009.3 0.0
01/06:00am 11.4 6.8 5.7 68 2.6 NNW 19 32 10 17 1008.7 1008.7 0.0
01/05:30am 11.4 5.8 5.5 67 2.7 N 24 41 13 22 1008.4 1008.4 0.0
01/05:00am 11.3 6.5 5.4 67 2.7 N 20 37 11 20 1008.6 1008.6 0.0
01/04:33am 11.1 4.7 5.2 67 2.7 N 28 48 15 26 1008.6 1008.6 0.0
01/04:30am 11.1 4.7 5.2 67 2.7 N 28 44 15 24 1008.6 1008.6 0.0
01/04:00am 11.4 4.2 4.8 64 3.0 N 32 50 17 27 1009.1 1009.1 0.0
01/03:34am 11.7 4.8 4.7 62 3.2 N 30 48 16 26 1009.3 1009.3 0.0
01/03:30am 11.6 5.5 4.6 62 3.2 N 26 41 14 22 1009.4 1009.4 0.0
01/03:17am 11.7 5.1 4.4 61 3.3 N 28 46 15 25 1009.6 1009.6 0.0
01/03:00am 11.6 4.6 4.3 61 3.3 N 30 44 16 24 1009.8 1009.8 0.0
01/02:30am 11.6 3.6 3.9 59 3.4 N 35 54 19 29 1010.1 1010.1 0.0
01/02:10am 11.4 3.9 3.4 58 3.5 N 32 50 17 27 1010.6 1010.6 0.0
01/02:00am 11.2 4.1 3.3 58 3.5 N 30 46 16 25 1010.7 1010.7 0.0
01/01:30am 10.8 3.7 3.4 60 3.2 N 30 52 16 28 1011.3 1011.3 0.0
01/01:01am 10.7 3.8 2.5 57 3.5 N 28 48 15 26 1011.9 1011.9 0.0
01/01:00am 10.8 4.3 2.6 57 3.5 N 26 48 14 26 1012.1 1012.1 0.0
01/12:30am 10.5 4.3 2.4 57 3.5 N 24 39 13 21 1012.6 1012.6 0.0
01/12:00am 10.5 5.0 2.1 56 3.6 N 20 33 11 18 1013.4 1013.4 0.0
 
Date/Time
EST
Tmp

°C
App
Tmp
°C
Dew
Point
°C
Rel
Hum
%
Delta-T

°C
Wind Press
QNH
hPa
Press
MSL
hPa
Rain
since
9 am
mm
Dir
 
Spd
km/h
Gust
km/h
Spd
kts
Gust
kts
31/11:30pm 10.2 5.8 2.6 59 3.2 NNE 15 20 8 11 1014.0 1014.0 0.0
31/11:00pm 10.2 4.8 2.6 59 3.2 N 20 37 11 20 1014.3 1014.3 0.0
31/10:30pm 10.2 4.1 2.8 60 3.2 N 24 41 13 22 1015.0 1015.0 0.0
31/10:00pm 10.3 5.0 2.9 60 3.2 N 20 32 11 17 1015.2 1015.2 0.0
31/09:30pm 10.3 5.0 2.9 60 3.2 N 20 39 11 21 1015.4 1015.4 0.0
31/09:00pm 10.4 5.3 3.0 60 3.2 N 19 37 10 20 1015.4 1015.4 0.0
31/08:30pm 10.4 3.9 2.7 59 3.3 N 26 39 14 21 1015.6 1015.6 0.0
31/08:00pm 10.3 6.3 2.9 60 3.2 N 13 24 7 13 1015.3 1015.3 0.0
31/07:30pm 10.5 5.7 2.8 59 3.3 N 17 26 9 14 1015.4 1015.4 0.0
31/07:00pm 10.7 5.9 2.8 58 3.4 N 17 28 9 15 1016.1 1016.1 0.0
31/06:30pm 10.9 6.3 3.5 60 3.3 N 17 22 9 12 1016.2 1016.2 0.0
31/06:00pm 11.4 6.7 3.4 58 3.5 N 17 28 9 15 1016.0 1016.0 0.0
31/05:30pm 12.1 6.9 2.6 52 4.1 N 19 26 10 14 1015.7 1015.7 0.0
31/05:00pm 12.4 7.0 2.6 51 4.3 N 20 32 11 17 1015.7 1015.7 0.0
31/04:30pm 13.1 7.7 2.6 49 4.6 N 20 32 11 17 1015.6 1015.6 0.0
31/04:00pm 13.4 8.1 2.0 46 4.9 N 19 28 10 15 1016.0 1016.0 0.0
31/03:30pm 13.7 8.8 2.3 46 5.0 N 17 30 9 16 1016.4 1016.4 0.0
31/03:00pm 13.3 7.8 1.6 45 5.0 N 20 30 11 16 1016.8 1016.8 0.0
31/02:30pm 13.2 8.1 0.9 43 5.2 NNE 17 26 9 14 1017.1 1017.1 0.0
31/02:00pm 13.2 8.0 0.3 41 5.4 NNW 17 26 9 14 1017.5 1017.5 0.0
31/01:30pm 13.1 9.3 1.5 45 5.0 NNW 11 24 6 13 1018.1 1018.1 0.0
31/01:00pm 12.7 8.7 0.8 44 5.0 N 11 17 6 9 1018.8 1018.8 0.0
31/12:30pm 12.5 8.7 1.8 48 4.6 NW 11 19 6 10 1019.6 1019.6 0.0
31/12:00pm 11.7 7.9 1.6 50 4.3 NNW 11 20 6 11 1020.4 1020.4 0.0
31/11:30am 11.8 8.1 2.3 52 4.1 N 11 17 6 9 1021.0 1021.0 0.0
31/11:00am 11.2 8.0 2.8 56 3.6 NNW 9 19 5 10 1021.6 1021.6 0.0
31/10:30am 10.8 8.2 3.4 60 3.2 N 6 11 3 6 1021.7 1021.7 0.0

Latest Capital City Observations: Canberra | Sydney | Melbourne | Brisbane | Adelaide | Perth | Hobart | Darwin

Other Formats:

Comma delimited format used in spreadsheet applications
http://www.bom.gov.au/fwo/IDV60901/IDV60901.95936.axf

JavaScript Object Notation format (JSON) in row-major order
http://www.bom.gov.au/fwo/IDV60901/IDV60901.95936.json